createdAt,value
2022-08-26T00:02:06.152Z,20.95
2022-08-26T00:04:34.256Z,19.30
2022-08-26T00:07:01.767Z,17.40
2022-08-26T00:09:29.625Z,17.88
2022-08-26T00:11:57.132Z,19.10
2022-08-26T00:14:29.960Z,20.83
2022-08-26T00:19:26.248Z,18.58
2022-08-26T00:21:53.615Z,23.15
2022-08-26T00:24:22.218Z,22.23
2022-08-26T00:26:51.573Z,21.17
2022-08-26T00:29:19.432Z,21.80
2022-08-26T00:31:48.797Z,23.58
2022-08-26T00:34:16.865Z,19.58
2022-08-26T00:36:51.829Z,18.02
2022-08-26T00:39:20.359Z,24.08
2022-08-26T00:41:48.742Z,19.45
2022-08-26T00:44:16.200Z,22.63
2022-08-26T00:46:51.426Z,14.57
2022-08-26T00:49:26.005Z,16.60
2022-08-26T00:51:58.120Z,20.73
2022-08-26T00:54:34.267Z,19.95
2022-08-26T00:57:15.798Z,14.73
2022-08-26T00:59:51.675Z,23.95
2022-08-26T01:02:20.832Z,18.83
2022-08-26T01:04:55.437Z,22.20
2022-08-26T01:07:26.212Z,22.13
2022-08-26T01:09:55.674Z,19.27
2022-08-26T01:12:25.732Z,20.38
2022-08-26T01:14:53.239Z,20.35
2022-08-26T01:17:20.624Z,20.02
2022-08-26T01:19:57.528Z,22.67
2022-08-26T01:22:39.942Z,19.20
2022-08-26T01:25:08.646Z,22.00
2022-08-26T01:27:36.855Z,18.10
2022-08-26T01:30:06.646Z,17.77
2022-08-26T01:32:34.624Z,23.83
2022-08-26T01:35:02.311Z,20.08
2022-08-26T01:37:36.535Z,20.08
2022-08-26T01:40:10.521Z,22.73
2022-08-26T01:42:37.964Z,20.13
2022-08-26T01:45:13.265Z,20.90
2022-08-26T01:47:42.701Z,19.83
2022-08-26T01:50:28.236Z,23.13
2022-08-26T01:53:02.893Z,20.20
2022-08-26T01:55:33.207Z,21.42
2022-08-26T01:58:05.625Z,21.20
2022-08-26T02:00:35.069Z,22.13
2022-08-26T02:03:18.368Z,18.85
2022-08-26T02:05:54.879Z,22.73
2022-08-26T02:08:46.105Z,18.80
2022-08-26T02:11:14.816Z,18.00
2022-08-26T02:14:03.698Z,22.60
2022-08-26T02:16:39.506Z,21.80
2022-08-26T02:19:16.978Z,21.20
2022-08-26T02:21:51.257Z,21.95
2022-08-26T02:24:27.770Z,26.08
2022-08-26T02:26:57.865Z,20.70
2022-08-26T02:29:36.267Z,21.45
2022-08-26T02:32:09.436Z,23.45
2022-08-26T02:34:37.193Z,18.10
2022-08-26T02:37:08.817Z,23.15
2022-08-26T02:39:39.363Z,22.58
2022-08-26T02:42:07.422Z,18.38
2022-08-26T02:44:35.320Z,23.58
2022-08-26T02:47:03.664Z,17.35
2022-08-26T02:49:32.524Z,22.75
2022-08-26T02:52:02.020Z,26.52
2022-08-26T02:54:29.458Z,23.35
2022-08-26T02:56:57.337Z,23.45
2022-08-26T02:59:24.697Z,22.95
2022-08-26T03:01:52.822Z,21.60
2022-08-26T03:04:25.963Z,23.52
2022-08-26T03:06:53.864Z,17.27
2022-08-26T03:09:23.445Z,18.73
2022-08-26T03:11:52.147Z,20.92
2022-08-26T03:14:19.467Z,21.13
2022-08-26T03:16:48.485Z,21.08
2022-08-26T03:19:17.538Z,20.88
2022-08-26T03:21:47.228Z,20.60
2022-08-26T03:24:15.167Z,21.75
2022-08-26T03:26:52.367Z,20.08
2022-08-26T03:29:40.209Z,21.88
2022-08-26T03:32:08.063Z,25.02
2022-08-26T03:34:36.037Z,21.73
2022-08-26T03:37:03.575Z,20.63
2022-08-26T03:39:31.654Z,23.40
2022-08-26T03:41:59.194Z,18.52
2022-08-26T03:44:26.849Z,21.10
2022-08-26T03:46:54.681Z,21.20
2022-08-26T03:49:22.979Z,21.05
2022-08-26T03:51:50.641Z,21.55
2022-08-26T03:54:18.540Z,19.90
2022-08-26T03:56:46.417Z,23.80
2022-08-26T03:59:14.185Z,20.70
2022-08-26T04:01:42.014Z,25.90
2022-08-26T04:04:09.734Z,21.42
2022-08-26T04:06:44.769Z,25.73
2022-08-26T04:09:21.432Z,21.00
2022-08-26T04:11:50.521Z,20.45
2022-08-26T04:14:23.785Z,17.85
2022-08-26T04:16:53.403Z,22.23
2022-08-26T04:19:24.603Z,25.38
2022-08-26T04:21:53.356Z,22.05
2022-08-26T04:24:24.372Z,20.08
2022-08-26T04:26:52.391Z,22.90
2022-08-26T04:29:24.637Z,25.48
2022-08-26T04:31:55.762Z,25.23
2022-08-26T04:34:28.574Z,23.30
2022-08-26T04:36:57.503Z,23.23
2022-08-26T04:39:25.746Z,20.77
2022-08-26T04:41:55.708Z,24.75
2022-08-26T04:44:27.960Z,21.48
2022-08-26T04:46:56.108Z,23.92
2022-08-26T04:49:23.586Z,24.60
2022-08-26T04:51:53.807Z,20.13
2022-08-26T04:54:22.223Z,23.65
2022-08-26T04:56:50.774Z,22.77
2022-08-26T04:59:18.455Z,17.95
2022-08-26T05:01:53.462Z,20.65
2022-08-26T05:04:21.473Z,19.75
2022-08-26T05:06:50.561Z,26.60
2022-08-26T05:09:19.378Z,29.73
2022-08-26T05:11:48.534Z,24.70
2022-08-26T05:14:20.615Z,35.00
2022-08-26T05:16:49.328Z,25.08
2022-08-26T05:19:18.673Z,25.23
2022-08-26T05:21:48.724Z,28.40
2022-08-26T05:24:17.224Z,31.98
2022-08-26T05:26:45.730Z,19.45
2022-08-26T05:29:14.068Z,33.10
2022-08-26T05:31:41.825Z,27.10
2022-08-26T05:34:10.228Z,23.98
2022-08-26T05:36:38.009Z,27.40
2022-08-26T05:39:10.698Z,27.38
2022-08-26T05:41:41.134Z,30.90
2022-08-26T05:44:14.000Z,25.83
2022-08-26T05:46:44.879Z,25.73
2022-08-26T05:49:16.001Z,25.38
2022-08-26T05:51:47.719Z,24.33
2022-08-26T05:54:21.358Z,29.90
2022-08-26T05:56:51.286Z,29.20
2022-08-26T05:59:24.199Z,26.13
2022-08-26T06:01:53.136Z,27.52
2022-08-26T06:04:20.491Z,30.90
2022-08-26T06:06:48.311Z,24.63
2022-08-26T06:09:17.505Z,24.35
2022-08-26T06:11:45.591Z,25.15
2022-08-26T06:14:12.889Z,23.15
2022-08-26T06:16:45.745Z,26.10
2022-08-26T06:19:15.706Z,28.10
2022-08-26T06:21:47.892Z,24.85
2022-08-26T06:24:40.205Z,26.33
2022-08-26T06:27:13.558Z,28.70
2022-08-26T06:29:41.818Z,26.73
2022-08-26T06:32:09.140Z,26.42
2022-08-26T06:34:36.379Z,29.67
2022-08-26T06:37:06.423Z,33.25
2022-08-26T06:39:34.182Z,23.67
2022-08-26T06:42:03.273Z,27.35
2022-08-26T06:44:33.641Z,25.88
2022-08-26T06:47:01.348Z,29.92
2022-08-26T06:49:28.721Z,31.27
2022-08-26T06:51:59.947Z,28.50
2022-08-26T06:54:30.332Z,20.25
2022-08-26T06:56:58.493Z,24.73
2022-08-26T06:59:26.159Z,19.52
2022-08-26T07:01:54.916Z,30.17
2022-08-26T07:04:24.564Z,25.73
2022-08-26T07:06:53.858Z,24.88
2022-08-26T07:09:25.341Z,23.55
2022-08-26T07:11:56.183Z,28.35
2022-08-26T07:14:24.971Z,25.13
2022-08-26T07:16:53.658Z,25.77
2022-08-26T07:19:30.339Z,48.92
2022-08-26T07:22:03.905Z,28.83
2022-08-26T07:24:35.142Z,24.83
2022-08-26T07:27:06.306Z,24.40
2022-08-26T07:29:35.810Z,25.73
2022-08-26T07:32:04.379Z,27.08
2022-08-26T07:34:35.029Z,25.63
2022-08-26T07:37:03.980Z,24.35
2022-08-26T07:39:36.142Z,26.23
2022-08-26T07:42:08.067Z,26.75
2022-08-26T07:44:37.633Z,21.77
2022-08-26T07:47:10.425Z,20.35
2022-08-26T07:49:54.436Z,23.35
2022-08-26T07:52:26.232Z,19.02
2022-08-26T07:54:54.577Z,25.13
2022-08-26T07:57:21.867Z,25.10
2022-08-26T07:59:52.114Z,25.73
2022-08-26T08:02:21.630Z,23.30
2022-08-26T08:04:48.926Z,22.73
2022-08-26T08:07:16.392Z,21.73
2022-08-26T08:09:43.795Z,21.02
2022-08-26T08:12:14.227Z,24.63
2022-08-26T08:14:45.357Z,23.17
2022-08-26T08:17:14.479Z,22.60
2022-08-26T08:19:43.037Z,29.80
2022-08-26T08:22:17.277Z,21.42
2022-08-26T08:24:49.842Z,19.98
2022-08-26T08:27:22.862Z,20.23
2022-08-26T08:29:54.312Z,20.42
2022-08-26T08:32:23.937Z,26.92
2022-08-26T08:34:51.313Z,21.75
2022-08-26T08:37:19.214Z,20.80
2022-08-26T08:39:46.447Z,20.42
2022-08-26T08:42:57.103Z,22.90
2022-08-26T08:45:55.118Z,21.90
2022-08-26T08:48:28.007Z,21.98
2022-08-26T08:51:05.150Z,18.88
2022-08-26T08:53:41.670Z,28.58
2022-08-26T08:56:20.654Z,21.63
2022-08-26T08:59:21.966Z,20.15
2022-08-26T09:01:52.431Z,16.45
2022-08-26T09:04:47.016Z,25.42
2022-08-26T09:07:48.313Z,23.52
2022-08-26T09:10:21.365Z,20.50
2022-08-26T09:12:51.763Z,20.00
2022-08-26T09:15:51.852Z,26.88
2022-08-26T09:18:51.793Z,22.00
2022-08-26T09:21:23.922Z,22.65
2022-08-26T09:26:47.625Z,18.95
2022-08-26T09:29:42.538Z,22.73
2022-08-26T09:32:26.318Z,23.02
2022-08-26T09:35:27.016Z,23.92
2022-08-26T09:37:55.622Z,22.67
2022-08-26T09:40:35.349Z,19.65
2022-08-26T09:43:13.498Z,20.88
2022-08-26T09:45:50.636Z,17.27
2022-08-26T09:48:36.598Z,20.20
2022-08-26T09:51:30.541Z,20.77
2022-08-26T09:54:01.143Z,19.45
2022-08-26T09:56:33.666Z,15.70
2022-08-26T09:59:02.260Z,20.58
2022-08-26T10:01:43.592Z,25.50
2022-08-26T10:04:31.296Z,16.67
2022-08-26T10:07:06.302Z,19.67
2022-08-26T10:09:39.566Z,16.83
2022-08-26T10:12:23.542Z,14.82
2022-08-26T10:14:56.598Z,16.33
2022-08-26T10:17:56.019Z,20.33
2022-08-26T10:20:31.379Z,22.40
2022-08-26T10:23:08.531Z,17.23
2022-08-26T10:26:02.073Z,13.75
2022-08-26T10:28:53.050Z,24.40
2022-08-26T10:31:30.293Z,17.60
2022-08-26T10:34:06.147Z,20.52
2022-08-26T10:37:15.828Z,15.05
2022-08-26T10:40:07.715Z,15.48
2022-08-26T10:42:50.481Z,17.48
2022-08-26T10:45:25.418Z,14.82
2022-08-26T10:48:12.997Z,16.73
2022-08-26T10:50:44.438Z,19.33
2022-08-26T10:53:27.304Z,19.63
2022-08-26T10:56:15.822Z,15.50
2022-08-26T10:59:18.767Z,17.65
2022-08-26T11:02:09.161Z,14.23
2022-08-26T11:04:57.876Z,13.68
2022-08-26T11:07:46.208Z,17.65
2022-08-26T11:10:19.673Z,17.65
2022-08-26T11:15:24.370Z,16.63
2022-08-26T11:17:51.669Z,17.17
2022-08-26T11:20:41.619Z,20.98
2022-08-26T11:23:24.204Z,15.90
2022-08-26T11:26:09.181Z,16.75
2022-08-26T11:28:48.272Z,17.45
2022-08-26T11:31:28.580Z,19.75
2022-08-26T11:34:07.101Z,15.20
2022-08-26T11:36:42.171Z,11.68
2022-08-26T11:39:47.852Z,13.38
2022-08-26T11:42:35.052Z,18.83
2022-08-26T11:45:37.686Z,17.55
2022-08-26T11:48:26.724Z,17.38
2022-08-26T11:50:57.010Z,18.80
2022-08-26T11:53:26.105Z,16.90
2022-08-26T11:55:58.208Z,15.48
2022-08-26T11:58:28.473Z,17.58
2022-08-26T12:01:09.923Z,15.18
2022-08-26T12:03:49.662Z,17.23
2022-08-26T12:06:31.260Z,17.25
2022-08-26T12:09:08.239Z,21.30
2022-08-26T12:11:39.129Z,15.77
2022-08-26T12:14:18.472Z,16.63
2022-08-26T12:16:45.967Z,19.35
2022-08-26T12:19:32.787Z,14.95
2022-08-26T12:22:29.226Z,18.25
2022-08-26T12:25:00.082Z,17.75
2022-08-26T12:27:40.128Z,16.00
2022-08-26T12:30:19.209Z,15.40
2022-08-26T12:33:22.108Z,16.85
2022-08-26T12:35:56.422Z,16.48
2022-08-26T12:40:53.785Z,13.73
2022-08-26T12:43:45.431Z,16.40
2022-08-26T12:46:17.561Z,16.33
2022-08-26T12:48:49.088Z,16.50
2022-08-26T12:51:29.393Z,18.45
2022-08-26T12:53:58.548Z,17.13
2022-08-26T12:56:36.102Z,23.13
2022-08-26T12:59:19.859Z,16.52
2022-08-26T13:01:48.545Z,20.95
2022-08-26T13:04:39.716Z,13.18
2022-08-26T13:07:26.994Z,28.08
2022-08-26T13:10:00.967Z,19.83
2022-08-26T13:12:37.483Z,20.48
2022-08-26T13:15:06.603Z,22.40
2022-08-26T13:17:35.928Z,23.35
2022-08-26T13:20:07.212Z,18.20
2022-08-26T13:22:35.260Z,8.23
2022-08-26T13:25:04.728Z,6.82
2022-08-26T13:27:32.842Z,11.32
2022-08-26T13:30:01.714Z,10.52
2022-08-26T13:32:30.158Z,11.32
2022-08-26T13:34:59.966Z,9.98
2022-08-26T13:37:34.971Z,10.13
2022-08-26T13:40:07.688Z,15.65
2022-08-26T13:42:35.151Z,24.52
2022-08-26T13:45:04.355Z,14.15
2022-08-26T13:47:31.682Z,29.88
2022-08-26T13:49:58.949Z,22.33
2022-08-26T13:52:30.645Z,26.48
2022-08-26T13:55:00.624Z,17.60
2022-08-26T13:57:30.259Z,23.17
2022-08-26T13:59:59.556Z,16.23
2022-08-26T14:02:28.356Z,16.80
2022-08-26T14:04:56.061Z,20.25
2022-08-26T14:07:24.089Z,14.98
2022-08-26T14:09:51.464Z,18.85
2022-08-26T14:12:18.909Z,18.80
2022-08-26T14:14:46.281Z,20.40
2022-08-26T14:17:21.234Z,17.15
2022-08-26T14:19:50.586Z,16.70
2022-08-26T14:22:20.484Z,20.30
2022-08-26T14:24:48.371Z,19.02
2022-08-26T14:27:16.124Z,18.50
2022-08-26T14:29:43.479Z,24.48
2022-08-26T14:32:22.761Z,21.05
2022-08-26T14:34:50.674Z,15.40
2022-08-26T14:37:18.253Z,16.10
2022-08-26T14:39:46.622Z,16.98
2022-08-26T14:42:16.819Z,15.02
2022-08-26T14:44:46.792Z,18.38
2022-08-26T14:47:14.323Z,19.70
2022-08-26T14:49:41.571Z,17.85
2022-08-26T14:52:08.911Z,16.65
2022-08-26T14:54:37.511Z,18.25
2022-08-26T14:57:10.296Z,14.75
2022-08-26T14:59:41.507Z,13.10
2022-08-26T15:02:13.588Z,16.83
2022-08-26T15:04:41.828Z,19.17
2022-08-26T15:07:12.715Z,16.55
2022-08-26T15:09:40.651Z,17.17
2022-08-26T15:12:08.394Z,11.27
2022-08-26T15:14:36.044Z,13.75
2022-08-26T15:17:03.437Z,16.08
2022-08-26T15:19:30.786Z,15.38
2022-08-26T15:21:58.283Z,14.75
2022-08-26T15:24:28.862Z,11.23
2022-08-26T15:26:56.282Z,12.75
2022-08-26T15:29:24.247Z,16.65
2022-08-26T15:31:52.349Z,13.82
2022-08-26T15:34:24.197Z,17.98
2022-08-26T15:36:51.512Z,14.90
2022-08-26T15:39:19.798Z,11.43
2022-08-26T15:41:47.787Z,14.68
2022-08-26T15:44:18.506Z,12.73
2022-08-26T15:46:47.268Z,14.35
2022-08-26T15:49:17.604Z,16.30
2022-08-26T15:51:48.173Z,13.82
2022-08-26T15:54:17.517Z,17.05
2022-08-26T15:56:45.767Z,13.35
2022-08-26T15:59:16.095Z,11.32
2022-08-26T16:01:44.265Z,10.43
2022-08-26T16:04:11.969Z,15.73
2022-08-26T16:06:42.550Z,15.63
2022-08-26T16:09:10.908Z,16.98
2022-08-26T16:11:38.358Z,14.18
2022-08-26T16:14:07.341Z,17.95
2022-08-26T16:16:39.419Z,16.90
2022-08-26T16:19:08.431Z,14.63
2022-08-26T16:21:36.610Z,17.50
2022-08-26T16:24:05.279Z,14.65
2022-08-26T16:26:36.803Z,13.80
2022-08-26T16:29:09.182Z,16.58
2022-08-26T16:31:38.422Z,15.70
2022-08-26T16:34:07.338Z,13.23
2022-08-26T16:36:36.013Z,13.18
2022-08-26T16:39:04.179Z,16.75
2022-08-26T16:41:32.492Z,14.23
2022-08-26T16:44:00.196Z,15.50
2022-08-26T16:46:28.641Z,16.35
2022-08-26T16:48:58.262Z,14.00
2022-08-26T16:51:28.081Z,16.85
2022-08-26T16:53:57.531Z,17.00
2022-08-26T16:56:33.586Z,18.60
2022-08-26T16:59:04.962Z,13.38
2022-08-26T17:01:32.822Z,12.75
2022-08-26T17:04:00.289Z,16.23
2022-08-26T17:06:27.786Z,14.10
2022-08-26T17:08:55.079Z,18.98
2022-08-26T17:11:22.388Z,19.33
2022-08-26T17:13:49.725Z,19.10
2022-08-26T17:16:17.157Z,15.30
2022-08-26T17:18:44.863Z,15.43
2022-08-26T17:21:14.884Z,18.58
2022-08-26T17:23:44.828Z,15.18
2022-08-26T17:26:13.852Z,20.40
2022-08-26T17:28:41.920Z,17.17
2022-08-26T17:31:12.582Z,16.13
2022-08-26T17:33:53.196Z,17.58
2022-08-26T17:36:28.154Z,16.30
2022-08-26T17:38:57.480Z,18.20
2022-08-26T17:41:25.295Z,15.40
2022-08-26T17:43:52.974Z,16.70
2022-08-26T17:46:20.853Z,19.70
2022-08-26T17:48:48.689Z,16.55
2022-08-26T17:51:19.945Z,18.02
2022-08-26T17:53:48.922Z,17.13
2022-08-26T17:56:23.946Z,20.88
2022-08-26T17:58:54.084Z,23.65
2022-08-26T18:01:26.286Z,20.63
2022-08-26T18:04:00.105Z,19.70
2022-08-26T18:06:29.116Z,23.45
2022-08-26T18:08:56.708Z,18.13
2022-08-26T18:11:24.539Z,17.88
2022-08-26T18:13:52.558Z,18.13
2022-08-26T18:16:20.916Z,16.02
2022-08-26T18:18:53.529Z,16.88
2022-08-26T18:21:25.022Z,20.63
2022-08-26T18:23:53.696Z,20.17
2022-08-26T18:26:37.789Z,17.35
2022-08-26T18:29:07.516Z,19.38
2022-08-26T18:31:35.610Z,18.13
2022-08-26T18:34:04.101Z,15.52
2022-08-26T18:36:35.656Z,19.50
2022-08-26T18:39:05.073Z,16.15
2022-08-26T18:41:38.465Z,16.90
2022-08-26T18:44:06.195Z,14.00
2022-08-26T18:46:35.309Z,14.38
2022-08-26T18:49:04.069Z,15.32
2022-08-26T18:51:34.404Z,17.70
2022-08-26T18:54:05.685Z,17.38
2022-08-26T18:56:35.686Z,16.17
2022-08-26T18:59:05.332Z,17.58
2022-08-26T19:01:34.494Z,14.55
2022-08-26T19:04:04.339Z,19.80
2022-08-26T19:06:33.488Z,18.33
2022-08-26T19:09:01.022Z,17.02
2022-08-26T19:11:31.603Z,16.17
2022-08-26T19:14:01.733Z,13.90
2022-08-26T19:16:30.861Z,16.45
2022-08-26T19:19:00.702Z,14.45
2022-08-26T19:21:29.025Z,15.57
2022-08-26T19:24:02.602Z,14.98
2022-08-26T19:26:32.035Z,13.18
2022-08-26T19:29:00.997Z,18.92
2022-08-26T19:31:29.110Z,15.10
2022-08-26T19:33:58.083Z,15.57
2022-08-26T19:36:27.097Z,16.33
2022-08-26T19:38:56.594Z,12.90
2022-08-26T19:41:36.652Z,16.10
2022-08-26T19:44:34.928Z,18.60
2022-08-26T19:47:03.882Z,21.25
2022-08-26T19:49:32.617Z,15.70
2022-08-26T19:52:00.104Z,16.45
2022-08-26T19:54:27.373Z,18.73
2022-08-26T19:56:54.729Z,14.05
2022-08-26T19:59:22.129Z,21.17
2022-08-26T20:01:50.518Z,21.88
2022-08-26T20:04:30.307Z,18.13
2022-08-26T20:07:00.471Z,14.85
2022-08-26T20:09:30.232Z,18.55
2022-08-26T20:11:58.271Z,16.35
2022-08-26T20:14:27.721Z,20.15
2022-08-26T20:16:55.156Z,18.15
2022-08-26T20:19:41.587Z,18.65
2022-08-26T20:22:09.130Z,18.52
2022-08-26T20:24:36.963Z,14.15
2022-08-26T20:27:07.992Z,19.55
2022-08-26T20:29:37.531Z,13.35
2022-08-26T20:32:07.932Z,17.15
2022-08-26T20:34:37.176Z,15.30
2022-08-26T20:37:05.554Z,15.80
2022-08-26T20:39:32.888Z,17.63
2022-08-26T20:42:00.268Z,17.58
2022-08-26T20:44:27.720Z,17.25
2022-08-26T20:46:56.730Z,19.08
2022-08-26T20:49:24.131Z,18.98
2022-08-26T20:51:52.016Z,16.75
2022-08-26T20:54:25.112Z,20.70
2022-08-26T20:56:57.248Z,15.52
2022-08-26T20:59:25.139Z,18.98
2022-08-26T21:01:53.190Z,13.38
2022-08-26T21:04:24.644Z,19.90
2022-08-26T21:06:54.471Z,13.55
2022-08-26T21:09:26.069Z,15.20
2022-08-26T21:11:55.289Z,18.90
2022-08-26T21:14:25.741Z,17.48
2022-08-26T21:16:54.245Z,19.42
2022-08-26T21:19:22.047Z,21.40
2022-08-26T21:21:50.315Z,16.70
2022-08-26T21:24:17.962Z,19.73
2022-08-26T21:26:46.389Z,17.98
2022-08-26T21:29:14.383Z,19.00
2022-08-26T21:31:45.999Z,16.05
2022-08-26T21:34:18.817Z,14.48
2022-08-26T21:36:47.868Z,14.85
2022-08-26T21:39:15.529Z,18.13
2022-08-26T21:41:44.753Z,19.67
2022-08-26T21:44:14.447Z,18.20
2022-08-26T21:46:43.358Z,17.95
2022-08-26T21:49:15.754Z,17.98
2022-08-26T21:51:47.448Z,15.65
2022-08-26T21:54:15.837Z,16.48
2022-08-26T21:56:46.813Z,18.02
2022-08-26T21:59:17.388Z,20.52
2022-08-26T22:01:44.822Z,23.20
2022-08-26T22:04:12.417Z,18.88
2022-08-26T22:06:50.650Z,13.23
2022-08-26T22:09:25.389Z,18.85
2022-08-26T22:11:54.106Z,15.15
2022-08-26T22:14:25.454Z,17.60
2022-08-26T22:16:58.566Z,18.42
2022-08-26T22:19:26.475Z,15.88
2022-08-26T22:21:55.804Z,16.50
2022-08-26T22:24:26.912Z,16.88
2022-08-26T22:26:55.726Z,18.85
2022-08-26T22:29:25.220Z,17.05
2022-08-26T22:31:53.466Z,17.45
2022-08-26T22:34:23.026Z,14.98
2022-08-26T22:36:50.583Z,14.68
2022-08-26T22:39:22.861Z,14.32
2022-08-26T22:41:51.774Z,17.63
2022-08-26T22:44:22.287Z,21.17
2022-08-26T22:46:51.736Z,16.02
2022-08-26T22:49:19.749Z,15.40
2022-08-26T22:51:47.619Z,14.73
2022-08-26T22:54:16.673Z,17.48
2022-08-26T22:56:45.363Z,19.52
2022-08-26T22:59:13.362Z,15.40
2022-08-26T23:01:43.448Z,18.17
2022-08-26T23:04:11.181Z,13.43
2022-08-26T23:06:43.346Z,15.75
2022-08-26T23:09:18.143Z,16.23
2022-08-26T23:11:46.919Z,18.02
2022-08-26T23:14:14.428Z,16.38
2022-08-26T23:16:42.685Z,17.10
2022-08-26T23:19:13.627Z,17.63
2022-08-26T23:21:41.549Z,17.13
2022-08-26T23:24:09.774Z,16.92
2022-08-26T23:26:38.388Z,22.45
2022-08-26T23:29:08.974Z,16.33
2022-08-26T23:31:38.934Z,20.25
2022-08-26T23:34:25.592Z,20.00
2022-08-26T23:36:53.845Z,19.38
2022-08-26T23:39:21.341Z,17.20
2022-08-26T23:41:48.681Z,19.02
2022-08-26T23:44:16.917Z,14.88
2022-08-26T23:46:44.172Z,16.55
2022-08-26T23:49:11.617Z,15.00
2022-08-26T23:51:58.033Z,13.38
2022-08-26T23:54:25.595Z,15.50
2022-08-26T23:56:52.990Z,14.73
2022-08-26T23:59:20.784Z,19.33
